sensor_id;sensor_type;location;lat;lon;timestamp;P1;durP1;ratioP1;P2;durP2;ratioP2
46651;SDS011;32377;52.182;5.398;2024-02-28T00:01:38;73.80;;;33.03;;
46651;SDS011;32377;52.182;5.398;2024-02-28T00:04:16;67.63;;;30.37;;
46651;SDS011;32377;52.182;5.398;2024-02-28T00:06:41;65.27;;;31.20;;
46651;SDS011;32377;52.182;5.398;2024-02-28T00:09:07;74.60;;;32.93;;
46651;SDS011;32377;52.182;5.398;2024-02-28T00:11:33;76.23;;;34.80;;
46651;SDS011;32377;52.182;5.398;2024-02-28T00:13:58;70.53;;;31.07;;
46651;SDS011;32377;52.182;5.398;2024-02-28T00:16:27;76.67;;;33.13;;
46651;SDS011;32377;52.182;5.398;2024-02-28T00:18:53;80.07;;;34.27;;
46651;SDS011;32377;52.182;5.398;2024-02-28T00:21:18;77.20;;;33.47;;
46651;SDS011;32377;52.182;5.398;2024-02-28T00:23:44;71.70;;;32.43;;
46651;SDS011;32377;52.182;5.398;2024-02-28T00:26:11;72.93;;;32.73;;
46651;SDS011;32377;52.182;5.398;2024-02-28T00:28:37;76.83;;;33.03;;
46651;SDS011;32377;52.182;5.398;2024-02-28T00:31:02;76.03;;;32.67;;
46651;SDS011;32377;52.182;5.398;2024-02-28T00:33:28;69.43;;;31.23;;
46651;SDS011;32377;52.182;5.398;2024-02-28T00:35:54;81.20;;;33.87;;
46651;SDS011;32377;52.182;5.398;2024-02-28T00:38:19;72.43;;;33.57;;
46651;SDS011;32377;52.182;5.398;2024-02-28T00:40:45;78.90;;;34.17;;
46651;SDS011;32377;52.182;5.398;2024-02-28T00:43:10;77.73;;;32.43;;
46651;SDS011;32377;52.182;5.398;2024-02-28T00:45:36;71.83;;;31.20;;
46651;SDS011;32377;52.182;5.398;2024-02-28T00:48:02;76.07;;;31.30;;
46651;SDS011;32377;52.182;5.398;2024-02-28T00:50:27;79.30;;;35.30;;
46651;SDS011;32377;52.182;5.398;2024-02-28T00:52:53;70.70;;;31.07;;
46651;SDS011;32377;52.182;5.398;2024-02-28T00:55:18;69.97;;;30.83;;
46651;SDS011;32377;52.182;5.398;2024-02-28T00:57:44;78.43;;;31.60;;
46651;SDS011;32377;52.182;5.398;2024-02-28T01:00:10;81.47;;;33.50;;
46651;SDS011;32377;52.182;5.398;2024-02-28T01:02:36;77.23;;;32.77;;
46651;SDS011;32377;52.182;5.398;2024-02-28T01:05:01;85.57;;;35.03;;
46651;SDS011;32377;52.182;5.398;2024-02-28T01:07:27;75.50;;;32.10;;
46651;SDS011;32377;52.182;5.398;2024-02-28T01:09:53;83.73;;;35.87;;
46651;SDS011;32377;52.182;5.398;2024-02-28T01:12:19;81.87;;;34.57;;
46651;SDS011;32377;52.182;5.398;2024-02-28T01:14:44;82.63;;;34.07;;
46651;SDS011;32377;52.182;5.398;2024-02-28T01:17:10;77.43;;;35.30;;
46651;SDS011;32377;52.182;5.398;2024-02-28T01:19:36;82.77;;;33.33;;
46651;SDS011;32377;52.182;5.398;2024-02-28T01:22:01;85.93;;;34.73;;
46651;SDS011;32377;52.182;5.398;2024-02-28T01:24:27;75.73;;;31.93;;
46651;SDS011;32377;52.182;5.398;2024-02-28T01:26:52;77.23;;;33.80;;
46651;SDS011;32377;52.182;5.398;2024-02-28T01:29:18;80.20;;;32.70;;
46651;SDS011;32377;52.182;5.398;2024-02-28T01:31:44;80.63;;;34.43;;
46651;SDS011;32377;52.182;5.398;2024-02-28T01:34:09;78.90;;;32.80;;
46651;SDS011;32377;52.182;5.398;2024-02-28T01:36:35;75.13;;;33.13;;
46651;SDS011;32377;52.182;5.398;2024-02-28T01:39:00;80.33;;;34.47;;
46651;SDS011;32377;52.182;5.398;2024-02-28T01:41:26;76.33;;;33.73;;
46651;SDS011;32377;52.182;5.398;2024-02-28T01:43:51;82.87;;;35.00;;
46651;SDS011;32377;52.182;5.398;2024-02-28T01:48:53;86.00;;;34.95;;
46651;SDS011;32377;52.182;5.398;2024-02-28T01:51:23;77.97;;;34.20;;
46651;SDS011;32377;52.182;5.398;2024-02-28T01:53:51;82.70;;;34.93;;
46651;SDS011;32377;52.182;5.398;2024-02-28T01:56:17;78.57;;;33.80;;
46651;SDS011;32377;52.182;5.398;2024-02-28T01:58:45;76.63;;;34.47;;
46651;SDS011;32377;52.182;5.398;2024-02-28T02:01:13;84.77;;;33.43;;
46651;SDS011;32377;52.182;5.398;2024-02-28T02:03:39;88.83;;;36.10;;
46651;SDS011;32377;52.182;5.398;2024-02-28T02:06:05;85.53;;;35.40;;
46651;SDS011;32377;52.182;5.398;2024-02-28T02:08:31;91.63;;;36.60;;
46651;SDS011;32377;52.182;5.398;2024-02-28T02:10:58;84.00;;;36.87;;
46651;SDS011;32377;52.182;5.398;2024-02-28T02:13:24;84.67;;;34.87;;
46651;SDS011;32377;52.182;5.398;2024-02-28T02:15:50;87.10;;;34.00;;
46651;SDS011;32377;52.182;5.398;2024-02-28T02:18:15;91.27;;;38.00;;
46651;SDS011;32377;52.182;5.398;2024-02-28T02:20:43;87.10;;;37.40;;
46651;SDS011;32377;52.182;5.398;2024-02-28T02:23:11;83.67;;;35.77;;
46651;SDS011;32377;52.182;5.398;2024-02-28T02:25:44;89.13;;;35.90;;
46651;SDS011;32377;52.182;5.398;2024-02-28T02:28:13;82.13;;;33.60;;
46651;SDS011;32377;52.182;5.398;2024-02-28T02:30:39;85.50;;;35.63;;
46651;SDS011;32377;52.182;5.398;2024-02-28T02:33:06;83.90;;;34.03;;
46651;SDS011;32377;52.182;5.398;2024-02-28T02:35:35;82.50;;;34.50;;
46651;SDS011;32377;52.182;5.398;2024-02-28T02:38:01;77.00;;;33.57;;
46651;SDS011;32377;52.182;5.398;2024-02-28T02:40:27;80.27;;;34.77;;
46651;SDS011;32377;52.182;5.398;2024-02-28T02:42:52;78.10;;;34.80;;
46651;SDS011;32377;52.182;5.398;2024-02-28T02:45:18;82.30;;;34.53;;
46651;SDS011;32377;52.182;5.398;2024-02-28T02:47:44;85.17;;;33.87;;
46651;SDS011;32377;52.182;5.398;2024-02-28T02:50:09;77.13;;;33.10;;
46651;SDS011;32377;52.182;5.398;2024-02-28T02:52:35;71.37;;;32.60;;
46651;SDS011;32377;52.182;5.398;2024-02-28T02:55:01;63.83;;;30.00;;
46651;SDS011;32377;52.182;5.398;2024-02-28T02:57:27;66.70;;;29.80;;
46651;SDS011;32377;52.182;5.398;2024-02-28T02:59:53;67.37;;;30.67;;
46651;SDS011;32377;52.182;5.398;2024-02-28T03:02:18;73.20;;;32.70;;
46651;SDS011;32377;52.182;5.398;2024-02-28T03:04:44;67.53;;;31.10;;
46651;SDS011;32377;52.182;5.398;2024-02-28T03:07:09;65.80;;;29.20;;
46651;SDS011;32377;52.182;5.398;2024-02-28T03:09:35;66.30;;;29.20;;
46651;SDS011;32377;52.182;5.398;2024-02-28T03:12:01;66.00;;;29.33;;
46651;SDS011;32377;52.182;5.398;2024-02-28T03:14:26;62.17;;;28.43;;
46651;SDS011;32377;52.182;5.398;2024-02-28T03:16:52;65.73;;;31.13;;
46651;SDS011;32377;52.182;5.398;2024-02-28T03:19:18;62.90;;;30.60;;
46651;SDS011;32377;52.182;5.398;2024-02-28T03:21:44;61.77;;;29.50;;
46651;SDS011;32377;52.182;5.398;2024-02-28T03:24:10;59.60;;;29.03;;
46651;SDS011;32377;52.182;5.398;2024-02-28T03:26:36;55.80;;;27.50;;
46651;SDS011;32377;52.182;5.398;2024-02-28T03:29:01;59.27;;;28.90;;
46651;SDS011;32377;52.182;5.398;2024-02-28T03:31:27;57.00;;;28.10;;
46651;SDS011;32377;52.182;5.398;2024-02-28T03:33:53;59.50;;;28.60;;
46651;SDS011;32377;52.182;5.398;2024-02-28T03:36:19;61.37;;;29.87;;
46651;SDS011;32377;52.182;5.398;2024-02-28T03:38:45;58.07;;;28.40;;
46651;SDS011;32377;52.182;5.398;2024-02-28T03:41:10;57.80;;;27.63;;
46651;SDS011;32377;52.182;5.398;2024-02-28T03:43:36;53.63;;;28.87;;
46651;SDS011;32377;52.182;5.398;2024-02-28T03:46:01;55.70;;;27.60;;
46651;SDS011;32377;52.182;5.398;2024-02-28T03:48:27;57.07;;;28.30;;
46651;SDS011;32377;52.182;5.398;2024-02-28T03:50:52;56.30;;;27.90;;
46651;SDS011;32377;52.182;5.398;2024-02-28T03:53:18;55.77;;;28.27;;
46651;SDS011;32377;52.182;5.398;2024-02-28T03:55:44;52.00;;;28.97;;
46651;SDS011;32377;52.182;5.398;2024-02-28T03:58:10;58.37;;;28.03;;
46651;SDS011;32377;52.182;5.398;2024-02-28T04:00:35;50.33;;;27.53;;
46651;SDS011;32377;52.182;5.398;2024-02-28T04:03:02;51.80;;;27.07;;
46651;SDS011;32377;52.182;5.398;2024-02-28T04:05:28;54.77;;;27.77;;
46651;SDS011;32377;52.182;5.398;2024-02-28T04:07:54;51.00;;;27.87;;
46651;SDS011;32377;52.182;5.398;2024-02-28T04:10:19;49.70;;;25.30;;
46651;SDS011;32377;52.182;5.398;2024-02-28T04:12:45;51.33;;;27.33;;
46651;SDS011;32377;52.182;5.398;2024-02-28T04:15:11;51.43;;;27.90;;
46651;SDS011;32377;52.182;5.398;2024-02-28T04:17:38;51.07;;;26.83;;
46651;SDS011;32377;52.182;5.398;2024-02-28T04:20:07;50.77;;;26.30;;
46651;SDS011;32377;52.182;5.398;2024-02-28T04:22:36;49.30;;;26.83;;
46651;SDS011;32377;52.182;5.398;2024-02-28T04:25:02;47.10;;;26.33;;
46651;SDS011;32377;52.182;5.398;2024-02-28T04:27:29;45.33;;;25.17;;
46651;SDS011;32377;52.182;5.398;2024-02-28T04:29:54;49.47;;;25.83;;
46651;SDS011;32377;52.182;5.398;2024-02-28T04:32:20;52.60;;;27.27;;
46651;SDS011;32377;52.182;5.398;2024-02-28T04:34:45;51.10;;;25.67;;
46651;SDS011;32377;52.182;5.398;2024-02-28T04:37:11;47.17;;;25.10;;
46651;SDS011;32377;52.182;5.398;2024-02-28T04:39:36;51.70;;;27.40;;
46651;SDS011;32377;52.182;5.398;2024-02-28T04:42:02;43.10;;;23.37;;
46651;SDS011;32377;52.182;5.398;2024-02-28T04:44:28;48.13;;;25.27;;
46651;SDS011;32377;52.182;5.398;2024-02-28T04:46:53;43.95;;;25.23;;
46651;SDS011;32377;52.182;5.398;2024-02-28T04:49:19;45.23;;;24.23;;
46651;SDS011;32377;52.182;5.398;2024-02-28T04:51:45;44.55;;;23.42;;
46651;SDS011;32377;52.182;5.398;2024-02-28T04:54:10;43.63;;;23.00;;
46651;SDS011;32377;52.182;5.398;2024-02-28T04:59:22;37.27;;;21.17;;
46651;SDS011;32377;52.182;5.398;2024-02-28T05:01:47;41.85;;;23.05;;
46651;SDS011;32377;52.182;5.398;2024-02-28T05:04:13;39.65;;;21.02;;
46651;SDS011;32377;52.182;5.398;2024-02-28T05:06:39;42.35;;;22.40;;
46651;SDS011;32377;52.182;5.398;2024-02-28T05:09:05;37.60;;;21.30;;
46651;SDS011;32377;52.182;5.398;2024-02-28T05:11:30;43.53;;;23.10;;
46651;SDS011;32377;52.182;5.398;2024-02-28T05:13:57;40.55;;;22.25;;
46651;SDS011;32377;52.182;5.398;2024-02-28T05:16:22;46.30;;;23.60;;
46651;SDS011;32377;52.182;5.398;2024-02-28T05:18:48;36.58;;;22.52;;
46651;SDS011;32377;52.182;5.398;2024-02-28T05:21:14;37.92;;;21.75;;
46651;SDS011;32377;52.182;5.398;2024-02-28T05:23:40;36.45;;;22.77;;
46651;SDS011;32377;52.182;5.398;2024-02-28T05:26:05;43.58;;;22.42;;
46651;SDS011;32377;52.182;5.398;2024-02-28T05:28:35;37.95;;;22.52;;
46651;SDS011;32377;52.182;5.398;2024-02-28T05:31:19;36.35;;;23.08;;
46651;SDS011;32377;52.182;5.398;2024-02-28T05:33:45;39.78;;;22.77;;
46651;SDS011;32377;52.182;5.398;2024-02-28T05:36:11;36.75;;;21.85;;
46651;SDS011;32377;52.182;5.398;2024-02-28T05:38:36;39.88;;;23.48;;
46651;SDS011;32377;52.182;5.398;2024-02-28T05:41:02;38.22;;;22.35;;
46651;SDS011;32377;52.182;5.398;2024-02-28T05:43:27;36.55;;;22.40;;
46651;SDS011;32377;52.182;5.398;2024-02-28T05:45:53;42.67;;;23.52;;
46651;SDS011;32377;52.182;5.398;2024-02-28T05:48:19;41.53;;;23.48;;
46651;SDS011;32377;52.182;5.398;2024-02-28T05:50:45;45.35;;;23.92;;
46651;SDS011;32377;52.182;5.398;2024-02-28T05:53:11;37.58;;;24.02;;
46651;SDS011;32377;52.182;5.398;2024-02-28T05:55:36;40.60;;;23.50;;
46651;SDS011;32377;52.182;5.398;2024-02-28T05:58:02;43.97;;;23.60;;
46651;SDS011;32377;52.182;5.398;2024-02-28T06:00:28;44.45;;;24.50;;
46651;SDS011;32377;52.182;5.398;2024-02-28T06:02:54;47.80;;;25.02;;
46651;SDS011;32377;52.182;5.398;2024-02-28T06:05:19;35.83;;;23.13;;
46651;SDS011;32377;52.182;5.398;2024-02-28T06:07:45;35.08;;;22.88;;
46651;SDS011;32377;52.182;5.398;2024-02-28T06:10:11;45.60;;;23.30;;
46651;SDS011;32377;52.182;5.398;2024-02-28T06:12:36;41.95;;;25.00;;
46651;SDS011;32377;52.182;5.398;2024-02-28T06:15:02;36.65;;;23.10;;
46651;SDS011;32377;52.182;5.398;2024-02-28T06:17:29;43.42;;;25.08;;
46651;SDS011;32377;52.182;5.398;2024-02-28T06:19:55;38.63;;;23.38;;
46651;SDS011;32377;52.182;5.398;2024-02-28T06:22:20;41.72;;;23.63;;
46651;SDS011;32377;52.182;5.398;2024-02-28T06:24:46;38.22;;;24.63;;
46651;SDS011;32377;52.182;5.398;2024-02-28T06:27:11;41.25;;;25.27;;
46651;SDS011;32377;52.182;5.398;2024-02-28T06:29:38;39.50;;;24.05;;
46651;SDS011;32377;52.182;5.398;2024-02-28T06:32:04;41.78;;;23.98;;
46651;SDS011;32377;52.182;5.398;2024-02-28T06:34:30;40.30;;;24.42;;
46651;SDS011;32377;52.182;5.398;2024-02-28T06:36:56;38.60;;;25.50;;
46651;SDS011;32377;52.182;5.398;2024-02-28T06:39:21;44.15;;;23.65;;
46651;SDS011;32377;52.182;5.398;2024-02-28T06:41:47;42.88;;;26.25;;
46651;SDS011;32377;52.182;5.398;2024-02-28T06:44:16;45.45;;;26.02;;
46651;SDS011;32377;52.182;5.398;2024-02-28T06:46:44;46.85;;;27.75;;
46651;SDS011;32377;52.182;5.398;2024-02-28T06:49:10;42.03;;;25.15;;
46651;SDS011;32377;52.182;5.398;2024-02-28T06:51:36;39.67;;;24.88;;
46651;SDS011;32377;52.182;5.398;2024-02-28T06:54:01;44.17;;;24.88;;
46651;SDS011;32377;52.182;5.398;2024-02-28T06:56:27;49.00;;;25.88;;
46651;SDS011;32377;52.182;5.398;2024-02-28T06:58:52;42.08;;;25.58;;
46651;SDS011;32377;52.182;5.398;2024-02-28T07:01:18;39.00;;;25.60;;
46651;SDS011;32377;52.182;5.398;2024-02-28T07:03:44;40.03;;;25.65;;
46651;SDS011;32377;52.182;5.398;2024-02-28T07:06:09;45.78;;;25.38;;
46651;SDS011;32377;52.182;5.398;2024-02-28T07:08:36;45.97;;;27.98;;
46651;SDS011;32377;52.182;5.398;2024-02-28T07:11:02;41.75;;;25.60;;
46651;SDS011;32377;52.182;5.398;2024-02-28T07:13:27;50.30;;;26.45;;
46651;SDS011;32377;52.182;5.398;2024-02-28T07:15:53;42.47;;;26.50;;
46651;SDS011;32377;52.182;5.398;2024-02-28T07:18:19;45.47;;;26.23;;
46651;SDS011;32377;52.182;5.398;2024-02-28T07:20:45;38.85;;;24.90;;
46651;SDS011;32377;52.182;5.398;2024-02-28T07:23:11;47.75;;;27.50;;
46651;SDS011;32377;52.182;5.398;2024-02-28T07:25:37;47.40;;;26.02;;
46651;SDS011;32377;52.182;5.398;2024-02-28T07:28:03;45.33;;;26.10;;
46651;SDS011;32377;52.182;5.398;2024-02-28T07:30:29;40.55;;;25.60;;
46651;SDS011;32377;52.182;5.398;2024-02-28T07:32:55;44.35;;;27.75;;
46651;SDS011;32377;52.182;5.398;2024-02-28T07:35:21;46.30;;;28.08;;
46651;SDS011;32377;52.182;5.398;2024-02-28T07:37:48;45.47;;;27.10;;
46651;SDS011;32377;52.182;5.398;2024-02-28T07:40:14;40.60;;;26.13;;
46651;SDS011;32377;52.182;5.398;2024-02-28T07:42:40;41.60;;;25.20;;
46651;SDS011;32377;52.182;5.398;2024-02-28T07:45:05;45.13;;;26.63;;
46651;SDS011;32377;52.182;5.398;2024-02-28T07:47:33;46.33;;;26.52;;
46651;SDS011;32377;52.182;5.398;2024-02-28T07:49:59;46.00;;;27.70;;
46651;SDS011;32377;52.182;5.398;2024-02-28T07:52:24;52.30;;;28.52;;
46651;SDS011;32377;52.182;5.398;2024-02-28T07:54:50;46.97;;;27.20;;
46651;SDS011;32377;52.182;5.398;2024-02-28T07:57:17;43.33;;;26.98;;
46651;SDS011;32377;52.182;5.398;2024-02-28T07:59:42;45.15;;;26.27;;
46651;SDS011;32377;52.182;5.398;2024-02-28T08:02:08;43.13;;;27.23;;
46651;SDS011;32377;52.182;5.398;2024-02-28T08:04:38;42.83;;;27.48;;
46651;SDS011;32377;52.182;5.398;2024-02-28T08:07:04;43.45;;;26.13;;
46651;SDS011;32377;52.182;5.398;2024-02-28T08:09:30;40.10;;;26.05;;
46651;SDS011;32377;52.182;5.398;2024-02-28T08:11:55;42.85;;;25.50;;
46651;SDS011;32377;52.182;5.398;2024-02-28T08:14:23;45.75;;;27.33;;
46651;SDS011;32377;52.182;5.398;2024-02-28T08:16:48;40.42;;;25.77;;
46651;SDS011;32377;52.182;5.398;2024-02-28T08:19:14;44.50;;;26.35;;
46651;SDS011;32377;52.182;5.398;2024-02-28T08:21:39;41.25;;;25.30;;
46651;SDS011;32377;52.182;5.398;2024-02-28T08:24:05;43.35;;;26.73;;
46651;SDS011;32377;52.182;5.398;2024-02-28T08:26:31;40.20;;;25.48;;
46651;SDS011;32377;52.182;5.398;2024-02-28T08:28:56;43.50;;;26.98;;
46651;SDS011;32377;52.182;5.398;2024-02-28T08:31:22;44.45;;;27.60;;
46651;SDS011;32377;52.182;5.398;2024-02-28T08:33:48;36.45;;;26.02;;
46651;SDS011;32377;52.182;5.398;2024-02-28T08:36:13;44.05;;;25.52;;
46651;SDS011;32377;52.182;5.398;2024-02-28T08:38:40;43.63;;;26.02;;
46651;SDS011;32377;52.182;5.398;2024-02-28T08:41:06;37.60;;;25.65;;
46651;SDS011;32377;52.182;5.398;2024-02-28T08:43:33;38.55;;;25.92;;
46651;SDS011;32377;52.182;5.398;2024-02-28T08:46:05;44.50;;;25.83;;
46651;SDS011;32377;52.182;5.398;2024-02-28T08:48:31;41.17;;;25.48;;
46651;SDS011;32377;52.182;5.398;2024-02-28T08:50:58;40.10;;;25.83;;
46651;SDS011;32377;52.182;5.398;2024-02-28T08:53:23;33.92;;;22.80;;
46651;SDS011;32377;52.182;5.398;2024-02-28T08:55:49;43.72;;;25.58;;
46651;SDS011;32377;52.182;5.398;2024-02-28T08:58:14;39.78;;;24.73;;
46651;SDS011;32377;52.182;5.398;2024-02-28T09:00:40;36.08;;;24.23;;
46651;SDS011;32377;52.182;5.398;2024-02-28T09:03:06;37.50;;;24.50;;
46651;SDS011;32377;52.182;5.398;2024-02-28T09:05:31;39.70;;;27.00;;
46651;SDS011;32377;52.182;5.398;2024-02-28T09:07:57;41.47;;;26.10;;
46651;SDS011;32377;52.182;5.398;2024-02-28T09:10:23;37.85;;;26.40;;
46651;SDS011;32377;52.182;5.398;2024-02-28T09:12:49;37.03;;;24.50;;
46651;SDS011;32377;52.182;5.398;2024-02-28T09:15:15;39.17;;;25.67;;
46651;SDS011;32377;52.182;5.398;2024-02-28T09:17:41;41.15;;;25.95;;
46651;SDS011;32377;52.182;5.398;2024-02-28T09:20:07;45.05;;;27.67;;
46651;SDS011;32377;52.182;5.398;2024-02-28T09:22:33;36.58;;;25.92;;
46651;SDS011;32377;52.182;5.398;2024-02-28T09:25:00;37.53;;;25.25;;
46651;SDS011;32377;52.182;5.398;2024-02-28T09:27:28;44.75;;;25.40;;
46651;SDS011;32377;52.182;5.398;2024-02-28T09:29:54;40.20;;;25.83;;
46651;SDS011;32377;52.182;5.398;2024-02-28T09:32:20;37.85;;;24.23;;
46651;SDS011;32377;52.182;5.398;2024-02-28T09:34:45;36.42;;;25.48;;
46651;SDS011;32377;52.182;5.398;2024-02-28T09:37:11;32.97;;;24.38;;
46651;SDS011;32377;52.182;5.398;2024-02-28T09:39:40;40.83;;;23.92;;
46651;SDS011;32377;52.182;5.398;2024-02-28T09:42:06;40.95;;;24.42;;
46651;SDS011;32377;52.182;5.398;2024-02-28T09:44:33;39.90;;;23.15;;
46651;SDS011;32377;52.182;5.398;2024-02-28T09:47:00;34.80;;;23.58;;
46651;SDS011;32377;52.182;5.398;2024-02-28T09:49:26;36.05;;;24.70;;
46651;SDS011;32377;52.182;5.398;2024-02-28T09:51:53;32.65;;;23.13;;
46651;SDS011;32377;52.182;5.398;2024-02-28T09:54:19;41.67;;;25.63;;
46651;SDS011;32377;52.182;5.398;2024-02-28T09:56:45;37.13;;;25.92;;
46651;SDS011;32377;52.182;5.398;2024-02-28T09:59:13;41.13;;;26.45;;
46651;SDS011;32377;52.182;5.398;2024-02-28T10:01:42;39.33;;;25.05;;
46651;SDS011;32377;52.182;5.398;2024-02-28T10:04:09;37.70;;;25.08;;
46651;SDS011;32377;52.182;5.398;2024-02-28T10:06:38;35.63;;;25.88;;
46651;SDS011;32377;52.182;5.398;2024-02-28T10:09:06;38.45;;;25.90;;
46651;SDS011;32377;52.182;5.398;2024-02-28T10:11:33;42.97;;;24.75;;
46651;SDS011;32377;52.182;5.398;2024-02-28T10:14:00;36.38;;;25.65;;
46651;SDS011;32377;52.182;5.398;2024-02-28T10:16:26;35.15;;;24.60;;
46651;SDS011;32377;52.182;5.398;2024-02-28T10:18:52;34.15;;;24.25;;
46651;SDS011;32377;52.182;5.398;2024-02-28T10:21:18;35.75;;;25.42;;
46651;SDS011;32377;52.182;5.398;2024-02-28T10:23:44;38.40;;;25.20;;
46651;SDS011;32377;52.182;5.398;2024-02-28T10:26:10;34.50;;;23.58;;
46651;SDS011;32377;52.182;5.398;2024-02-28T10:28:40;39.92;;;24.98;;
46651;SDS011;32377;52.182;5.398;2024-02-28T10:31:06;36.08;;;24.48;;
46651;SDS011;32377;52.182;5.398;2024-02-28T10:33:35;40.92;;;25.75;;
46651;SDS011;32377;52.182;5.398;2024-02-28T10:36:04;34.58;;;23.48;;
46651;SDS011;32377;52.182;5.398;2024-02-28T10:38:30;30.65;;;22.70;;
46651;SDS011;32377;52.182;5.398;2024-02-28T10:41:01;31.20;;;21.42;;
46651;SDS011;32377;52.182;5.398;2024-02-28T10:43:28;31.13;;;23.00;;
46651;SDS011;32377;52.182;5.398;2024-02-28T10:45:56;34.22;;;22.80;;
46651;SDS011;32377;52.182;5.398;2024-02-28T10:48:23;34.15;;;23.27;;
46651;SDS011;32377;52.182;5.398;2024-02-28T10:50:49;39.00;;;23.95;;
46651;SDS011;32377;52.182;5.398;2024-02-28T10:53:16;34.13;;;22.83;;
46651;SDS011;32377;52.182;5.398;2024-02-28T10:55:46;31.52;;;22.77;;
46651;SDS011;32377;52.182;5.398;2024-02-28T10:59:21;39.55;;;23.60;;
46651;SDS011;32377;52.182;5.398;2024-02-28T11:01:50;32.70;;;23.75;;
46651;SDS011;32377;52.182;5.398;2024-02-28T11:04:16;32.33;;;21.70;;
46651;SDS011;32377;52.182;5.398;2024-02-28T11:09:18;33.60;;;21.67;;
46651;SDS011;32377;52.182;5.398;2024-02-28T11:11:47;30.00;;;22.42;;
46651;SDS011;32377;52.182;5.398;2024-02-28T11:14:16;33.97;;;23.23;;
46651;SDS011;32377;52.182;5.398;2024-02-28T11:16:42;31.60;;;21.13;;
46651;SDS011;32377;52.182;5.398;2024-02-28T11:19:18;32.72;;;23.15;;
46651;SDS011;32377;52.182;5.398;2024-02-28T11:21:53;36.90;;;25.10;;
46651;SDS011;32377;52.182;5.398;2024-02-28T11:24:22;46.30;;;24.70;;
46651;SDS011;32377;52.182;5.398;2024-02-28T11:26:49;39.05;;;24.83;;
46651;SDS011;32377;52.182;5.398;2024-02-28T11:29:16;39.15;;;25.85;;
46651;SDS011;32377;52.182;5.398;2024-02-28T11:31:41;38.33;;;25.20;;
46651;SDS011;32377;52.182;5.398;2024-02-28T11:34:08;37.28;;;25.42;;
46651;SDS011;32377;52.182;5.398;2024-02-28T11:36:33;40.25;;;24.42;;
46651;SDS011;32377;52.182;5.398;2024-02-28T11:38:59;40.10;;;24.60;;
46651;SDS011;32377;52.182;5.398;2024-02-28T11:41:28;36.78;;;23.98;;
46651;SDS011;32377;52.182;5.398;2024-02-28T11:43:53;34.53;;;23.00;;
46651;SDS011;32377;52.182;5.398;2024-02-28T11:46:19;38.97;;;24.10;;
46651;SDS011;32377;52.182;5.398;2024-02-28T11:48:45;40.55;;;25.30;;
46651;SDS011;32377;52.182;5.398;2024-02-28T11:51:10;43.45;;;25.15;;
46651;SDS011;32377;52.182;5.398;2024-02-28T11:53:36;40.45;;;26.60;;
46651;SDS011;32377;52.182;5.398;2024-02-28T11:56:01;42.75;;;26.83;;
46651;SDS011;32377;52.182;5.398;2024-02-28T11:58:28;37.97;;;24.17;;
46651;SDS011;32377;52.182;5.398;2024-02-28T12:00:54;45.75;;;26.23;;
46651;SDS011;32377;52.182;5.398;2024-02-28T12:03:23;40.15;;;25.50;;
46651;SDS011;32377;52.182;5.398;2024-02-28T12:05:49;40.20;;;26.52;;
46651;SDS011;32377;52.182;5.398;2024-02-28T12:08:19;41.20;;;26.75;;
46651;SDS011;32377;52.182;5.398;2024-02-28T12:10:46;39.47;;;24.63;;
46651;SDS011;32377;52.182;5.398;2024-02-28T12:13:15;45.80;;;26.83;;
46651;SDS011;32377;52.182;5.398;2024-02-28T12:15:43;40.47;;;25.52;;
46651;SDS011;32377;52.182;5.398;2024-02-28T12:18:11;36.53;;;23.73;;
46651;SDS011;32377;52.182;5.398;2024-02-28T12:20:36;39.65;;;23.85;;
46651;SDS011;32377;52.182;5.398;2024-02-28T12:23:03;35.85;;;23.90;;
46651;SDS011;32377;52.182;5.398;2024-02-28T12:25:33;37.85;;;24.48;;
46651;SDS011;32377;52.182;5.398;2024-02-28T12:28:00;37.63;;;22.77;;
46651;SDS011;32377;52.182;5.398;2024-02-28T12:30:26;38.88;;;23.67;;
46651;SDS011;32377;52.182;5.398;2024-02-28T12:32:51;37.33;;;23.50;;
46651;SDS011;32377;52.182;5.398;2024-02-28T12:35:17;39.88;;;23.80;;
46651;SDS011;32377;52.182;5.398;2024-02-28T12:37:43;37.72;;;24.20;;
46651;SDS011;32377;52.182;5.398;2024-02-28T12:40:08;39.72;;;23.92;;
46651;SDS011;32377;52.182;5.398;2024-02-28T12:42:34;35.38;;;22.33;;
46651;SDS011;32377;52.182;5.398;2024-02-28T12:45:01;36.10;;;22.45;;
46651;SDS011;32377;52.182;5.398;2024-02-28T12:47:27;45.65;;;23.85;;
46651;SDS011;32377;52.182;5.398;2024-02-28T12:49:55;40.35;;;23.45;;
46651;SDS011;32377;52.182;5.398;2024-02-28T12:52:21;35.42;;;22.35;;
46651;SDS011;32377;52.182;5.398;2024-02-28T12:54:46;34.83;;;20.45;;
46651;SDS011;32377;52.182;5.398;2024-02-28T12:57:12;33.83;;;20.55;;
46651;SDS011;32377;52.182;5.398;2024-02-28T12:59:41;34.78;;;19.92;;
46651;SDS011;32377;52.182;5.398;2024-02-28T13:02:07;31.45;;;19.27;;
46651;SDS011;32377;52.182;5.398;2024-02-28T13:04:34;31.88;;;18.60;;
46651;SDS011;32377;52.182;5.398;2024-02-28T13:07:00;28.40;;;17.80;;
46651;SDS011;32377;52.182;5.398;2024-02-28T13:09:25;32.00;;;19.45;;
46651;SDS011;32377;52.182;5.398;2024-02-28T13:11:51;33.72;;;19.95;;
46651;SDS011;32377;52.182;5.398;2024-02-28T13:14:17;35.25;;;20.98;;
46651;SDS011;32377;52.182;5.398;2024-02-28T13:16:42;29.08;;;18.70;;
46651;SDS011;32377;52.182;5.398;2024-02-28T13:19:09;33.80;;;19.38;;
46651;SDS011;32377;52.182;5.398;2024-02-28T13:21:35;34.75;;;19.65;;
46651;SDS011;32377;52.182;5.398;2024-02-28T13:24:01;31.73;;;20.08;;
46651;SDS011;32377;52.182;5.398;2024-02-28T13:26:28;29.88;;;19.80;;
46651;SDS011;32377;52.182;5.398;2024-02-28T13:28:54;34.17;;;20.98;;
46651;SDS011;32377;52.182;5.398;2024-02-28T13:31:19;33.30;;;21.05;;
46651;SDS011;32377;52.182;5.398;2024-02-28T13:33:45;32.67;;;21.60;;
46651;SDS011;32377;52.182;5.398;2024-02-28T13:36:13;30.30;;;20.50;;
46651;SDS011;32377;52.182;5.398;2024-02-28T13:38:38;29.15;;;20.75;;
46651;SDS011;32377;52.182;5.398;2024-02-28T13:41:04;32.10;;;20.85;;
46651;SDS011;32377;52.182;5.398;2024-02-28T13:43:30;29.23;;;20.25;;
46651;SDS011;32377;52.182;5.398;2024-02-28T13:45:55;33.05;;;20.02;;
46651;SDS011;32377;52.182;5.398;2024-02-28T13:48:25;27.55;;;19.70;;
46651;SDS011;32377;52.182;5.398;2024-02-28T13:50:52;33.42;;;19.17;;
46651;SDS011;32377;52.182;5.398;2024-02-28T13:53:18;27.85;;;19.73;;
46651;SDS011;32377;52.182;5.398;2024-02-28T13:55:44;30.02;;;19.48;;
46651;SDS011;32377;52.182;5.398;2024-02-28T13:58:12;27.35;;;18.70;;
46651;SDS011;32377;52.182;5.398;2024-02-28T14:00:39;25.15;;;18.40;;
46651;SDS011;32377;52.182;5.398;2024-02-28T14:03:05;30.95;;;19.30;;
46651;SDS011;32377;52.182;5.398;2024-02-28T14:05:31;29.88;;;19.08;;
46651;SDS011;32377;52.182;5.398;2024-02-28T14:07:57;32.17;;;20.08;;
46651;SDS011;32377;52.182;5.398;2024-02-28T14:10:23;29.75;;;21.63;;
46651;SDS011;32377;52.182;5.398;2024-02-28T14:12:49;33.78;;;23.42;;
46651;SDS011;32377;52.182;5.398;2024-02-28T14:15:17;36.80;;;23.98;;
46651;SDS011;32377;52.182;5.398;2024-02-28T14:17:47;35.70;;;22.83;;
46651;SDS011;32377;52.182;5.398;2024-02-28T14:20:12;35.00;;;23.70;;
46651;SDS011;32377;52.182;5.398;2024-02-28T14:22:38;36.40;;;23.48;;
46651;SDS011;32377;52.182;5.398;2024-02-28T14:25:13;35.70;;;24.30;;